sensor_id;sensor_type;location;lat;lon;timestamp;P1;durP1;ratioP1;P2;durP2;ratioP2
11955;SDS011;6038;52.276;10.530;2023-07-20T00:00:39;1.60;;;1.10;;
11955;SDS011;6038;52.276;10.530;2023-07-20T00:03:13;1.50;;;1.00;;
11955;SDS011;6038;52.276;10.530;2023-07-20T00:05:42;3.60;;;1.27;;
11955;SDS011;6038;52.276;10.530;2023-07-20T00:08:09;1.00;;;1.00;;
11955;SDS011;6038;52.276;10.530;2023-07-20T00:10:34;1.80;;;1.00;;
11955;SDS011;6038;52.276;10.530;2023-07-20T00:13:00;1.00;;;0.90;;
11955;SDS011;6038;52.276;10.530;2023-07-20T00:15:27;1.87;;;1.20;;
11955;SDS011;6038;52.276;10.530;2023-07-20T00:17:52;1.33;;;1.07;;
11955;SDS011;6038;52.276;10.530;2023-07-20T00:20:18;1.83;;;1.10;;
11955;SDS011;6038;52.276;10.530;2023-07-20T00:22:44;1.07;;;1.00;;
11955;SDS011;6038;52.276;10.530;2023-07-20T00:25:10;2.03;;;1.00;;
11955;SDS011;6038;52.276;10.530;2023-07-20T00:27:37;1.20;;;1.10;;
11955;SDS011;6038;52.276;10.530;2023-07-20T00:30:03;1.13;;;1.03;;
11955;SDS011;6038;52.276;10.530;2023-07-20T00:32:29;1.10;;;1.00;;
11955;SDS011;6038;52.276;10.530;2023-07-20T00:34:55;3.40;;;1.20;;
11955;SDS011;6038;52.276;10.530;2023-07-20T00:37:21;1.10;;;1.00;;
11955;SDS011;6038;52.276;10.530;2023-07-20T00:39:47;1.20;;;1.00;;
11955;SDS011;6038;52.276;10.530;2023-07-20T00:42:13;1.53;;;1.20;;
11955;SDS011;6038;52.276;10.530;2023-07-20T00:44:39;1.30;;;1.00;;
11955;SDS011;6038;52.276;10.530;2023-07-20T00:47:05;1.20;;;1.10;;
11955;SDS011;6038;52.276;10.530;2023-07-20T00:49:32;1.97;;;1.00;;
11955;SDS011;6038;52.276;10.530;2023-07-20T00:51:59;3.00;;;1.00;;
11955;SDS011;6038;52.276;10.530;2023-07-20T00:54:25;0.90;;;0.90;;
11955;SDS011;6038;52.276;10.530;2023-07-20T00:56:52;1.20;;;1.10;;
11955;SDS011;6038;52.276;10.530;2023-07-20T00:59:19;0.93;;;0.93;;
11955;SDS011;6038;52.276;10.530;2023-07-20T01:01:45;0.80;;;0.80;;
11955;SDS011;6038;52.276;10.530;2023-07-20T01:04:11;1.10;;;0.93;;
11955;SDS011;6038;52.276;10.530;2023-07-20T01:09:34;1.70;;;1.00;;
11955;SDS011;6038;52.276;10.530;2023-07-20T01:12:09;2.30;;;1.10;;
11955;SDS011;6038;52.276;10.530;2023-07-20T01:14:38;1.10;;;1.00;;
11955;SDS011;6038;52.276;10.530;2023-07-20T01:17:04;1.87;;;1.20;;
11955;SDS011;6038;52.276;10.530;2023-07-20T01:19:30;2.07;;;1.30;;
11955;SDS011;6038;52.276;10.530;2023-07-20T01:24:34;1.27;;;1.07;;
11955;SDS011;6038;52.276;10.530;2023-07-20T01:29:54;0.87;;;0.87;;
11955;SDS011;6038;52.276;10.530;2023-07-20T01:32:21;1.07;;;1.00;;
11955;SDS011;6038;52.276;10.530;2023-07-20T01:34:49;1.10;;;1.00;;
11955;SDS011;6038;52.276;10.530;2023-07-20T01:37:16;1.20;;;1.10;;
11955;SDS011;6038;52.276;10.530;2023-07-20T01:39:45;0.90;;;0.90;;
11955;SDS011;6038;52.276;10.530;2023-07-20T01:42:11;1.80;;;1.07;;
11955;SDS011;6038;52.276;10.530;2023-07-20T01:44:37;1.17;;;1.00;;
11955;SDS011;6038;52.276;10.530;2023-07-20T01:47:03;1.33;;;1.00;;
11955;SDS011;6038;52.276;10.530;2023-07-20T01:49:29;1.33;;;0.93;;
11955;SDS011;6038;52.276;10.530;2023-07-20T01:51:55;1.20;;;1.00;;
11955;SDS011;6038;52.276;10.530;2023-07-20T01:54:21;1.40;;;1.00;;
11955;SDS011;6038;52.276;10.530;2023-07-20T01:56:47;1.13;;;1.00;;
11955;SDS011;6038;52.276;10.530;2023-07-20T01:59:13;1.23;;;1.10;;
11955;SDS011;6038;52.276;10.530;2023-07-20T02:01:39;2.00;;;1.53;;
11955;SDS011;6038;52.276;10.530;2023-07-20T02:04:05;1.30;;;1.20;;
11955;SDS011;6038;52.276;10.530;2023-07-20T02:06:31;1.20;;;1.00;;
11955;SDS011;6038;52.276;10.530;2023-07-20T02:08:57;1.17;;;0.90;;
11955;SDS011;6038;52.276;10.530;2023-07-20T02:11:24;1.00;;;1.00;;
11955;SDS011;6038;52.276;10.530;2023-07-20T02:13:50;0.90;;;0.90;;
11955;SDS011;6038;52.276;10.530;2023-07-20T02:16:15;1.10;;;1.00;;
11955;SDS011;6038;52.276;10.530;2023-07-20T02:18:41;1.07;;;0.97;;
11955;SDS011;6038;52.276;10.530;2023-07-20T02:21:09;1.27;;;1.00;;
11955;SDS011;6038;52.276;10.530;2023-07-20T02:23:35;3.20;;;1.10;;
11955;SDS011;6038;52.276;10.530;2023-07-20T02:26:01;1.10;;;0.90;;
11955;SDS011;6038;52.276;10.530;2023-07-20T02:28:27;1.43;;;0.90;;
11955;SDS011;6038;52.276;10.530;2023-07-20T02:30:54;1.83;;;1.10;;
11955;SDS011;6038;52.276;10.530;2023-07-20T02:33:20;0.80;;;0.80;;
11955;SDS011;6038;52.276;10.530;2023-07-20T02:35:46;1.00;;;0.90;;
11955;SDS011;6038;52.276;10.530;2023-07-20T02:38:12;0.93;;;0.93;;
11955;SDS011;6038;52.276;10.530;2023-07-20T02:40:38;0.90;;;0.90;;
11955;SDS011;6038;52.276;10.530;2023-07-20T02:43:04;1.53;;;1.00;;
11955;SDS011;6038;52.276;10.530;2023-07-20T02:45:30;2.03;;;0.90;;
11955;SDS011;6038;52.276;10.530;2023-07-20T02:47:56;0.70;;;0.70;;
11955;SDS011;6038;52.276;10.530;2023-07-20T02:50:22;0.80;;;0.80;;
11955;SDS011;6038;52.276;10.530;2023-07-20T02:52:48;1.00;;;0.90;;
11955;SDS011;6038;52.276;10.530;2023-07-20T02:55:15;1.13;;;1.03;;
11955;SDS011;6038;52.276;10.530;2023-07-20T02:57:41;3.00;;;1.13;;
11955;SDS011;6038;52.276;10.530;2023-07-20T03:00:07;2.80;;;0.93;;
11955;SDS011;6038;52.276;10.530;2023-07-20T03:02:33;0.80;;;0.80;;
11955;SDS011;6038;52.276;10.530;2023-07-20T03:04:59;2.37;;;0.93;;
11955;SDS011;6038;52.276;10.530;2023-07-20T03:07:26;1.37;;;1.10;;
11955;SDS011;6038;52.276;10.530;2023-07-20T03:09:53;0.90;;;0.90;;
11955;SDS011;6038;52.276;10.530;2023-07-20T03:12:20;1.20;;;1.10;;
11955;SDS011;6038;52.276;10.530;2023-07-20T03:14:46;1.20;;;1.10;;
11955;SDS011;6038;52.276;10.530;2023-07-20T03:17:12;2.07;;;1.00;;
11955;SDS011;6038;52.276;10.530;2023-07-20T03:19:38;1.80;;;0.90;;
11955;SDS011;6038;52.276;10.530;2023-07-20T03:22:04;1.77;;;1.17;;
11955;SDS011;6038;52.276;10.530;2023-07-20T03:24:30;1.00;;;1.00;;
11955;SDS011;6038;52.276;10.530;2023-07-20T03:26:56;2.73;;;1.33;;
11955;SDS011;6038;52.276;10.530;2023-07-20T03:29:22;1.23;;;0.87;;
11955;SDS011;6038;52.276;10.530;2023-07-20T03:31:48;1.17;;;1.07;;
11955;SDS011;6038;52.276;10.530;2023-07-20T03:34:15;1.13;;;0.90;;
11955;SDS011;6038;52.276;10.530;2023-07-20T03:36:41;1.20;;;0.97;;
11955;SDS011;6038;52.276;10.530;2023-07-20T03:39:07;0.97;;;0.90;;
11955;SDS011;6038;52.276;10.530;2023-07-20T03:41:33;1.10;;;0.80;;
11955;SDS011;6038;52.276;10.530;2023-07-20T03:43:59;1.20;;;1.10;;
11955;SDS011;6038;52.276;10.530;2023-07-20T03:46:25;1.00;;;0.87;;
11955;SDS011;6038;52.276;10.530;2023-07-20T03:48:51;2.17;;;0.90;;
11955;SDS011;6038;52.276;10.530;2023-07-20T03:51:17;1.67;;;0.90;;
11955;SDS011;6038;52.276;10.530;2023-07-20T03:53:43;0.90;;;0.90;;
11955;SDS011;6038;52.276;10.530;2023-07-20T03:56:10;1.57;;;1.10;;
11955;SDS011;6038;52.276;10.530;2023-07-20T03:58:36;1.00;;;1.00;;
11955;SDS011;6038;52.276;10.530;2023-07-20T04:01:02;1.03;;;1.00;;
11955;SDS011;6038;52.276;10.530;2023-07-20T04:03:28;1.60;;;0.90;;
11955;SDS011;6038;52.276;10.530;2023-07-20T04:05:54;1.10;;;0.90;;
11955;SDS011;6038;52.276;10.530;2023-07-20T04:08:22;2.43;;;0.90;;
11955;SDS011;6038;52.276;10.530;2023-07-20T04:10:48;1.30;;;0.90;;
11955;SDS011;6038;52.276;10.530;2023-07-20T04:13:14;1.23;;;1.03;;
11955;SDS011;6038;52.276;10.530;2023-07-20T04:15:41;1.03;;;0.93;;
11955;SDS011;6038;52.276;10.530;2023-07-20T04:18:07;1.30;;;1.00;;
11955;SDS011;6038;52.276;10.530;2023-07-20T04:20:33;2.87;;;1.20;;
11955;SDS011;6038;52.276;10.530;2023-07-20T04:22:59;1.77;;;1.20;;
11955;SDS011;6038;52.276;10.530;2023-07-20T04:25:25;2.70;;;1.10;;
11955;SDS011;6038;52.276;10.530;2023-07-20T04:27:51;1.47;;;1.13;;
11955;SDS011;6038;52.276;10.530;2023-07-20T04:30:18;1.30;;;1.10;;
11955;SDS011;6038;52.276;10.530;2023-07-20T04:32:48;1.07;;;0.97;;
11955;SDS011;6038;52.276;10.530;2023-07-20T04:35:16;1.77;;;1.30;;
11955;SDS011;6038;52.276;10.530;2023-07-20T04:37:43;1.73;;;1.10;;
11955;SDS011;6038;52.276;10.530;2023-07-20T04:40:11;1.70;;;1.10;;
11955;SDS011;6038;52.276;10.530;2023-07-20T04:42:37;1.70;;;1.20;;
11955;SDS011;6038;52.276;10.530;2023-07-20T04:45:04;3.00;;;1.30;;
11955;SDS011;6038;52.276;10.530;2023-07-20T04:47:30;1.33;;;1.10;;
11955;SDS011;6038;52.276;10.530;2023-07-20T04:49:56;1.30;;;1.20;;
11955;SDS011;6038;52.276;10.530;2023-07-20T04:52:22;0.90;;;0.80;;
11955;SDS011;6038;52.276;10.530;2023-07-20T04:54:48;1.40;;;1.20;;
11955;SDS011;6038;52.276;10.530;2023-07-20T04:57:14;1.63;;;1.33;;
11955;SDS011;6038;52.276;10.530;2023-07-20T04:59:40;2.53;;;1.30;;
11955;SDS011;6038;52.276;10.530;2023-07-20T05:02:06;1.47;;;1.20;;
11955;SDS011;6038;52.276;10.530;2023-07-20T05:04:32;1.53;;;1.10;;
11955;SDS011;6038;52.276;10.530;2023-07-20T05:06:58;1.53;;;1.20;;
11955;SDS011;6038;52.276;10.530;2023-07-20T05:09:24;1.77;;;1.30;;
11955;SDS011;6038;52.276;10.530;2023-07-20T05:11:50;2.63;;;1.20;;
11955;SDS011;6038;52.276;10.530;2023-07-20T05:14:16;1.70;;;1.13;;
11955;SDS011;6038;52.276;10.530;2023-07-20T05:16:42;2.23;;;1.10;;
11955;SDS011;6038;52.276;10.530;2023-07-20T05:19:08;1.30;;;1.03;;
11955;SDS011;6038;52.276;10.530;2023-07-20T05:21:34;2.43;;;1.30;;
11955;SDS011;6038;52.276;10.530;2023-07-20T05:24:00;1.30;;;1.20;;
11955;SDS011;6038;52.276;10.530;2023-07-20T05:26:26;1.50;;;1.30;;
11955;SDS011;6038;52.276;10.530;2023-07-20T05:28:52;2.77;;;1.20;;
11955;SDS011;6038;52.276;10.530;2023-07-20T05:31:19;1.87;;;1.20;;
11955;SDS011;6038;52.276;10.530;2023-07-20T05:33:45;1.30;;;1.07;;
11955;SDS011;6038;52.276;10.530;2023-07-20T05:36:11;3.00;;;1.27;;
11955;SDS011;6038;52.276;10.530;2023-07-20T05:38:37;1.93;;;1.47;;
11955;SDS011;6038;52.276;10.530;2023-07-20T05:41:03;1.50;;;1.33;;
11955;SDS011;6038;52.276;10.530;2023-07-20T05:43:29;2.03;;;1.57;;
11955;SDS011;6038;52.276;10.530;2023-07-20T05:45:56;2.00;;;1.80;;
11955;SDS011;6038;52.276;10.530;2023-07-20T05:48:23;2.50;;;1.50;;
11955;SDS011;6038;52.276;10.530;2023-07-20T05:50:49;2.37;;;1.33;;
11955;SDS011;6038;52.276;10.530;2023-07-20T05:53:15;3.47;;;1.40;;
11955;SDS011;6038;52.276;10.530;2023-07-20T05:55:41;2.30;;;1.40;;
11955;SDS011;6038;52.276;10.530;2023-07-20T05:58:07;2.43;;;1.30;;
11955;SDS011;6038;52.276;10.530;2023-07-20T06:00:33;3.00;;;1.60;;
11955;SDS011;6038;52.276;10.530;2023-07-20T06:02:59;2.43;;;1.50;;
11955;SDS011;6038;52.276;10.530;2023-07-20T06:05:25;3.27;;;1.53;;
11955;SDS011;6038;52.276;10.530;2023-07-20T06:07:51;2.93;;;1.77;;
11955;SDS011;6038;52.276;10.530;2023-07-20T06:10:17;2.63;;;1.80;;
11955;SDS011;6038;52.276;10.530;2023-07-20T06:12:43;2.57;;;1.80;;
11955;SDS011;6038;52.276;10.530;2023-07-20T06:17:54;2.80;;;1.40;;
11955;SDS011;6038;52.276;10.530;2023-07-20T06:20:21;1.70;;;1.60;;
11955;SDS011;6038;52.276;10.530;2023-07-20T06:22:47;4.00;;;1.80;;
11955;SDS011;6038;52.276;10.530;2023-07-20T06:25:13;2.40;;;1.70;;
11955;SDS011;6038;52.276;10.530;2023-07-20T06:27:39;2.47;;;1.70;;
11955;SDS011;6038;52.276;10.530;2023-07-20T06:30:05;2.53;;;1.97;;
11955;SDS011;6038;52.276;10.530;2023-07-20T06:32:32;2.30;;;1.60;;
11955;SDS011;6038;52.276;10.530;2023-07-20T06:34:57;4.77;;;2.17;;
11955;SDS011;6038;52.276;10.530;2023-07-20T06:37:23;2.37;;;1.67;;
11955;SDS011;6038;52.276;10.530;2023-07-20T06:39:50;3.13;;;1.50;;
11955;SDS011;6038;52.276;10.530;2023-07-20T06:42:16;2.33;;;1.63;;
11955;SDS011;6038;52.276;10.530;2023-07-20T06:44:42;1.90;;;1.80;;
11955;SDS011;6038;52.276;10.530;2023-07-20T06:47:08;2.43;;;2.20;;
11955;SDS011;6038;52.276;10.530;2023-07-20T06:49:34;2.00;;;1.77;;
11955;SDS011;6038;52.276;10.530;2023-07-20T06:52:00;3.17;;;2.07;;
11955;SDS011;6038;52.276;10.530;2023-07-20T06:54:26;3.33;;;2.13;;
11955;SDS011;6038;52.276;10.530;2023-07-20T06:56:52;3.93;;;2.60;;
11955;SDS011;6038;52.276;10.530;2023-07-20T06:59:18;3.43;;;2.57;;
11955;SDS011;6038;52.276;10.530;2023-07-20T07:01:46;3.00;;;2.70;;
11955;SDS011;6038;52.276;10.530;2023-07-20T07:04:12;3.03;;;2.30;;
11955;SDS011;6038;52.276;10.530;2023-07-20T07:06:38;3.37;;;2.67;;
11955;SDS011;6038;52.276;10.530;2023-07-20T07:09:04;2.73;;;2.53;;
11955;SDS011;6038;52.276;10.530;2023-07-20T07:11:30;4.83;;;2.63;;
11955;SDS011;6038;52.276;10.530;2023-07-20T07:13:56;3.97;;;2.87;;
11955;SDS011;6038;52.276;10.530;2023-07-20T07:16:22;2.70;;;2.40;;
11955;SDS011;6038;52.276;10.530;2023-07-20T07:18:49;2.87;;;2.40;;
11955;SDS011;6038;52.276;10.530;2023-07-20T07:21:16;3.00;;;2.40;;
11955;SDS011;6038;52.276;10.530;2023-07-20T07:23:42;3.47;;;2.83;;
11955;SDS011;6038;52.276;10.530;2023-07-20T07:26:09;2.50;;;2.30;;
11955;SDS011;6038;52.276;10.530;2023-07-20T07:28:35;2.53;;;2.10;;
11955;SDS011;6038;52.276;10.530;2023-07-20T07:31:04;2.40;;;2.10;;
11955;SDS011;6038;52.276;10.530;2023-07-20T07:33:31;2.47;;;2.27;;
11955;SDS011;6038;52.276;10.530;2023-07-20T07:35:57;3.53;;;2.23;;
11955;SDS011;6038;52.276;10.530;2023-07-20T07:38:23;2.20;;;2.00;;
11955;SDS011;6038;52.276;10.530;2023-07-20T07:40:49;2.10;;;1.80;;
11955;SDS011;6038;52.276;10.530;2023-07-20T07:43:15;5.57;;;1.70;;
11955;SDS011;6038;52.276;10.530;2023-07-20T07:45:41;2.23;;;1.70;;
11955;SDS011;6038;52.276;10.530;2023-07-20T07:48:07;2.87;;;1.73;;
11955;SDS011;6038;52.276;10.530;2023-07-20T07:50:36;2.17;;;1.40;;
11955;SDS011;6038;52.276;10.530;2023-07-20T07:53:02;1.60;;;1.50;;
11955;SDS011;6038;52.276;10.530;2023-07-20T07:55:28;1.50;;;1.40;;
11955;SDS011;6038;52.276;10.530;2023-07-20T07:57:54;1.40;;;1.30;;
11955;SDS011;6038;52.276;10.530;2023-07-20T08:00:20;1.60;;;1.20;;
11955;SDS011;6038;52.276;10.530;2023-07-20T08:02:46;1.20;;;1.10;;
11955;SDS011;6038;52.276;10.530;2023-07-20T08:05:15;1.30;;;1.20;;
11955;SDS011;6038;52.276;10.530;2023-07-20T08:07:42;1.70;;;1.60;;
11955;SDS011;6038;52.276;10.530;2023-07-20T08:10:08;1.67;;;1.57;;
11955;SDS011;6038;52.276;10.530;2023-07-20T08:12:34;2.03;;;1.70;;
11955;SDS011;6038;52.276;10.530;2023-07-20T08:15:01;3.10;;;1.93;;
11955;SDS011;6038;52.276;10.530;2023-07-20T08:17:27;1.63;;;1.53;;
11955;SDS011;6038;52.276;10.530;2023-07-20T08:19:53;1.48;;;1.38;;
11955;SDS011;6038;52.276;10.530;2023-07-20T08:22:19;1.93;;;1.63;;
11955;SDS011;6038;52.276;10.530;2023-07-20T08:24:45;1.67;;;1.40;;
11955;SDS011;6038;52.276;10.530;2023-07-20T08:27:11;1.52;;;1.42;;
11955;SDS011;6038;52.276;10.530;2023-07-20T08:29:37;1.60;;;1.48;;
11955;SDS011;6038;52.276;10.530;2023-07-20T08:32:03;2.17;;;1.70;;
11955;SDS011;6038;52.276;10.530;2023-07-20T08:34:29;1.05;;;1.00;;
11955;SDS011;6038;52.276;10.530;2023-07-20T08:36:56;1.10;;;1.00;;
11955;SDS011;6038;52.276;10.530;2023-07-20T08:39:22;1.30;;;1.20;;
11955;SDS011;6038;52.276;10.530;2023-07-20T08:41:48;1.77;;;1.10;;
11955;SDS011;6038;52.276;10.530;2023-07-20T08:44:14;2.90;;;0.90;;
11955;SDS011;6038;52.276;10.530;2023-07-20T08:46:41;1.92;;;1.00;;
11955;SDS011;6038;52.276;10.530;2023-07-20T08:49:07;1.27;;;1.10;;
11955;SDS011;6038;52.276;10.530;2023-07-20T08:51:33;1.48;;;1.08;;
11955;SDS011;6038;52.276;10.530;2023-07-20T08:54:01;1.35;;;1.10;;
11955;SDS011;6038;52.276;10.530;2023-07-20T08:56:27;1.02;;;1.00;;
11955;SDS011;6038;52.276;10.530;2023-07-20T08:58:53;3.08;;;1.13;;
11955;SDS011;6038;52.276;10.530;2023-07-20T09:01:20;1.63;;;1.15;;
11955;SDS011;6038;52.276;10.530;2023-07-20T09:03:46;1.48;;;0.75;;
11955;SDS011;6038;52.276;10.530;2023-07-20T09:06:12;0.90;;;0.90;;
11955;SDS011;6038;52.276;10.530;2023-07-20T09:08:39;0.90;;;0.90;;
11955;SDS011;6038;52.276;10.530;2023-07-20T09:11:05;1.30;;;1.00;;
11955;SDS011;6038;52.276;10.530;2023-07-20T09:13:34;1.63;;;0.80;;
11955;SDS011;6038;52.276;10.530;2023-07-20T09:16:00;1.20;;;0.93;;
11955;SDS011;6038;52.276;10.530;2023-07-20T09:18:29;1.95;;;1.00;;
11955;SDS011;6038;52.276;10.530;2023-07-20T09:20:58;0.68;;;0.68;;
11955;SDS011;6038;52.276;10.530;2023-07-20T09:23:38;1.30;;;0.90;;
11955;SDS011;6038;52.276;10.530;2023-07-20T09:26:11;1.80;;;0.80;;
11955;SDS011;6038;52.276;10.530;2023-07-20T09:28:44;0.93;;;0.90;;
11955;SDS011;6038;52.276;10.530;2023-07-20T09:31:16;1.00;;;0.80;;
11955;SDS011;6038;52.276;10.530;2023-07-20T09:33:43;1.30;;;0.70;;
11955;SDS011;6038;52.276;10.530;2023-07-20T09:36:10;2.17;;;0.70;;
11955;SDS011;6038;52.276;10.530;2023-07-20T09:38:41;1.77;;;0.80;;
11955;SDS011;6038;52.276;10.530;2023-07-20T09:41:14;0.55;;;0.55;;
11955;SDS011;6038;52.276;10.530;2023-07-20T09:43:40;0.60;;;0.60;;
11955;SDS011;6038;52.276;10.530;2023-07-20T09:46:06;0.80;;;0.80;;
11955;SDS011;6038;52.276;10.530;2023-07-20T09:48:32;0.77;;;0.77;;
11955;SDS011;6038;52.276;10.530;2023-07-20T09:50:58;0.60;;;0.60;;
11955;SDS011;6038;52.276;10.530;2023-07-20T09:53:25;0.82;;;0.80;;
11955;SDS011;6038;52.276;10.530;2023-07-20T09:55:52;1.30;;;0.80;;
11955;SDS011;6038;52.276;10.530;2023-07-20T09:58:18;1.00;;;0.90;;
11955;SDS011;6038;52.276;10.530;2023-07-20T10:00:45;0.80;;;0.80;;
11955;SDS011;6038;52.276;10.530;2023-07-20T10:03:18;1.17;;;0.88;;
11955;SDS011;6038;52.276;10.530;2023-07-20T10:05:46;1.90;;;0.80;;
11955;SDS011;6038;52.276;10.530;2023-07-20T10:08:14;1.48;;;0.90;;
11955;SDS011;6038;52.276;10.530;2023-07-20T10:10:41;0.80;;;0.77;;
11955;SDS011;6038;52.276;10.530;2023-07-20T10:13:13;1.23;;;0.70;;
11955;SDS011;6038;52.276;10.530;2023-07-20T10:15:43;1.55;;;0.95;;
11955;SDS011;6038;52.276;10.530;2023-07-20T10:18:14;0.98;;;0.90;;
11955;SDS011;6038;52.276;10.530;2023-07-20T10:20:41;1.27;;;0.70;;
11955;SDS011;6038;52.276;10.530;2023-07-20T10:23:07;1.33;;;0.70;;
11955;SDS011;6038;52.276;10.530;2023-07-20T10:25:34;1.42;;;1.00;;
11955;SDS011;6038;52.276;10.530;2023-07-20T10:28:05;0.70;;;0.70;;
11955;SDS011;6038;52.276;10.530;2023-07-20T10:30:31;0.98;;;0.90;;
11955;SDS011;6038;52.276;10.530;2023-07-20T10:32:58;1.63;;;0.70;;
11955;SDS011;6038;52.276;10.530;2023-07-20T10:35:28;1.30;;;0.82;;
11955;SDS011;6038;52.276;10.530;2023-07-20T10:37:54;0.70;;;0.70;;
11955;SDS011;6038;52.276;10.530;2023-07-20T10:42:49;0.70;;;0.70;;
11955;SDS011;6038;52.276;10.530;2023-07-20T10:45:17;2.17;;;0.90;;
11955;SDS011;6038;52.276;10.530;2023-07-20T10:47:46;1.98;;;1.30;;
11955;SDS011;6038;52.276;10.530;2023-07-20T10:50:12;1.73;;;1.10;;
11955;SDS011;6038;52.276;10.530;2023-07-20T10:52:41;0.80;;;0.80;;
11955;SDS011;6038;52.276;10.530;2023-07-20T10:55:11;1.20;;;0.85;;
11955;SDS011;6038;52.276;10.530;2023-07-20T10:57:39;1.42;;;0.80;;
11955;SDS011;6038;52.276;10.530;2023-07-20T11:00:09;1.20;;;1.10;;
11955;SDS011;6038;52.276;10.530;2023-07-20T11:02:46;1.05;;;0.90;;
11955;SDS011;6038;52.276;10.530;2023-07-20T11:07:57;1.15;;;0.70;;
11955;SDS011;6038;52.276;10.530;2023-07-20T11:10:23;0.75;;;0.75;;
11955;SDS011;6038;52.276;10.530;2023-07-20T11:13:34;0.98;;;0.80;;
11955;SDS011;6038;52.276;10.530;2023-07-20T11:18:32;1.48;;;1.02;;
11955;SDS011;6038;52.276;10.530;2023-07-20T11:20:58;1.73;;;0.90;;
11955;SDS011;6038;52.276;10.530;2023-07-20T11:23:24;1.48;;;0.90;;
11955;SDS011;6038;52.276;10.530;2023-07-20T11:25:50;0.80;;;0.80;;
11955;SDS011;6038;52.276;10.530;2023-07-20T11:28:16;1.33;;;1.10;;
11955;SDS011;6038;52.276;10.530;2023-07-20T11:30:42;0.60;;;0.60;;
11955;SDS011;6038;52.276;10.530;2023-07-20T11:33:08;0.80;;;0.80;;
11955;SDS011;6038;52.276;10.530;2023-07-20T11:35:35;1.25;;;1.02;;
11955;SDS011;6038;52.276;10.530;2023-07-20T11:38:01;2.13;;;1.05;;
11955;SDS011;6038;52.276;10.530;2023-07-20T11:40:27;2.10;;;1.13;;
11955;SDS011;6038;52.276;10.530;2023-07-20T11:42:53;1.40;;;1.23;;
11955;SDS011;6038;52.276;10.530;2023-07-20T11:45:20;2.53;;;0.95;;
11955;SDS011;6038;52.276;10.530;2023-07-20T11:47:46;1.20;;;0.80;;
11955;SDS011;6038;52.276;10.530;2023-07-20T11:50:12;1.05;;;0.95;;
11955;SDS011;6038;52.276;10.530;2023-07-20T11:52:39;1.73;;;0.90;;
11955;SDS011;6038;52.276;10.530;2023-07-20T11:55:05;0.88;;;0.88;;
11955;SDS011;6038;52.276;10.530;2023-07-20T11:57:32;1.88;;;0.88;;
11955;SDS011;6038;52.276;10.530;2023-07-20T12:00:01;1.70;;;0.82;;
11955;SDS011;6038;52.276;10.530;2023-07-20T12:02:36;2.50;;;0.80;;
11955;SDS011;6038;52.276;10.530;2023-07-20T12:05:03;2.08;;;1.05;;
11955;SDS011;6038;52.276;10.530;2023-07-20T12:07:35;1.13;;;0.80;;
11955;SDS011;6038;52.276;10.530;2023-07-20T12:12:31;1.30;;;0.73;;
11955;SDS011;6038;52.276;10.530;2023-07-20T12:15:11;3.00;;;0.90;;
11955;SDS011;6038;52.276;10.530;2023-07-20T12:17:41;2.65;;;1.00;;
11955;SDS011;6038;52.276;10.530;2023-07-20T12:20:07;1.55;;;1.10;;
11955;SDS011;6038;52.276;10.530;2023-07-20T12:22:38;1.55;;;0.82;;
11955;SDS011;6038;52.276;10.530;2023-07-20T12:25:07;1.92;;;0.82;;
11955;SDS011;6038;52.276;10.530;2023-07-20T12:27:35;1.10;;;1.00;;
11955;SDS011;6038;52.276;10.530;2023-07-20T12:30:01;1.33;;;0.95;;
11955;SDS011;6038;52.276;10.530;2023-07-20T12:32:29;1.17;;;0.60;;
11955;SDS011;6038;52.276;10.530;2023-07-20T12:34:55;1.42;;;0.80;;
11955;SDS011;6038;52.276;10.530;2023-07-20T12:37:21;1.38;;;0.80;;
11955;SDS011;6038;52.276;10.530;2023-07-20T12:39:47;4.22;;;0.88;;
11955;SDS011;6038;52.276;10.530;2023-07-20T12:42:13;1.65;;;0.70;;
11955;SDS011;6038;52.276;10.530;2023-07-20T12:44:40;1.40;;;1.30;;
11955;SDS011;6038;52.276;10.530;2023-07-20T12:47:06;0.82;;;0.73;;
11955;SDS011;6038;52.276;10.530;2023-07-20T12:49:32;0.75;;;0.75;;
11955;SDS011;6038;52.276;10.530;2023-07-20T12:51:58;0.80;;;0.70;;
11955;SDS011;6038;52.276;10.530;2023-07-20T12:54:24;2.88;;;0.70;;
11955;SDS011;6038;52.276;10.530;2023-07-20T12:56:50;1.42;;;0.90;;
11955;SDS011;6038;52.276;10.530;2023-07-20T12:59:16;1.75;;;0.82;;
11955;SDS011;6038;52.276;10.530;2023-07-20T13:01:42;3.35;;;0.98;;
11955;SDS011;6038;52.276;10.530;2023-07-20T13:04:09;1.33;;;0.80;;
11955;SDS011;6038;52.276;10.530;2023-07-20T13:06:35;1.17;;;0.80;;
11955;SDS011;6038;52.276;10.530;2023-07-20T13:09:01;2.00;;;1.50;;
11955;SDS011;6038;52.276;10.530;2023-07-20T13:11:28;2.58;;;1.10;;
11955;SDS011;6038;52.276;10.530;2023-07-20T13:13:54;0.63;;;0.63;;
11955;SDS011;6038;52.276;10.530;2023-07-20T13:16:20;1.10;;;1.00;;
11955;SDS011;6038;52.276;10.530;2023-07-20T13:18:46;1.88;;;0.95;;
11955;SDS011;6038;52.276;10.530;2023-07-20T13:21:12;1.33;;;0.98;;
11955;SDS011;6038;52.276;10.530;2023-07-20T13:23:38;0.60;;;0.60;;
11955;SDS011;6038;52.276;10.530;2023-07-20T13:26:04;1.63;;;1.08;;
11955;SDS011;6038;52.276;10.530;2023-07-20T13:28:30;1.13;;;0.93;;
11955;SDS011;6038;52.276;10.530;2023-07-20T13:30:56;1.00;;;0.80;;
11955;SDS011;6038;52.276;10.530;2023-07-20T13:33:22;1.48;;;1.00;;
11955;SDS011;6038;52.276;10.530;2023-07-20T13:35:48;2.33;;;0.90;;
11955;SDS011;6038;52.276;10.530;2023-07-20T13:38:14;1.63;;;1.20;;
11955;SDS011;6038;52.276;10.530;2023-07-20T13:40:40;1.45;;;0.90;;
11955;SDS011;6038;52.276;10.530;2023-07-20T13:43:07;4.40;;;1.10;;
11955;SDS011;6038;52.276;10.530;2023-07-20T13:45:33;3.53;;;0.90;;
11955;SDS011;6038;52.276;10.530;2023-07-20T13:47:59;2.85;;;1.00;;
11955;SDS011;6038;52.276;10.530;2023-07-20T13:50:25;1.65;;;0.95;;
11955;SDS011;6038;52.276;10.530;2023-07-20T13:52:53;1.75;;;1.00;;
11955;SDS011;6038;52.276;10.530;2023-07-20T13:55:19;1.00;;;0.90;;
11955;SDS011;6038;52.276;10.530;2023-07-20T13:57:45;1.20;;;1.10;;
11955;SDS011;6038;52.276;10.530;2023-07-20T14:00:11;2.50;;;0.90;;
11955;SDS011;6038;52.276;10.530;2023-07-20T14:02:38;1.17;;;1.08;;
11955;SDS011;6038;52.276;10.530;2023-07-20T14:05:04;3.13;;;1.30;;
11955;SDS011;6038;52.276;10.530;2023-07-20T14:07:30;2.35;;;1.05;;
11955;SDS011;6038;52.276;10.530;2023-07-20T14:09:57;2.33;;;1.17;;
11955;SDS011;6038;52.276;10.530;2023-07-20T14:12:24;2.03;;;0.95;;
11955;SDS011;6038;52.276;10.530;2023-07-20T14:14:50;1.50;;;1.02;;
11955;SDS011;6038;52.276;10.530;2023-07-20T14:17:16;2.15;;;1.10;;
11955;SDS011;6038;52.276;10.530;2023-07-20T14:19:42;0.90;;;0.85;;
11955;SDS011;6038;52.276;10.530;2023-07-20T14:22:08;2.90;;;1.00;;
11955;SDS011;6038;52.276;10.530;2023-07-20T14:24:34;1.27;;;1.00;;
11955;SDS011;6038;52.276;10.530;2023-07-20T14:27:00;3.78;;;0.90;;
11955;SDS011;6038;52.276;10.530;2023-07-20T14:29:26;2.55;;;1.00;;
11955;SDS011;6038;52.276;10.530;2023-07-20T14:31:56;0.80;;;0.80;;
11955;SDS011;6038;52.276;10.530;2023-07-20T14:34:22;1.17;;;1.05;;
11955;SDS011;6038;52.276;10.530;2023-07-20T14:36:48;1.75;;;0.82;;
11955;SDS011;6038;52.276;10.530;2023-07-20T14:39:15;1.20;;;0.95;;
11955;SDS011;6038;52.276;10.530;2023-07-20T14:41:41;0.95;;;0.90;;
11955;SDS011;6038;52.276;10.530;2023-07-20T14:44:07;1.55;;;0.98;;
11955;SDS011;6038;52.276;10.530;2023-07-20T14:46:33;1.75;;;1.20;;
11955;SDS011;6038;52.276;10.530;2023-07-20T14:48:59;1.85;;;1.20;;
11955;SDS011;6038;52.276;10.530;2023-07-20T14:51:25;2.03;;;1.10;;
11955;SDS011;6038;52.276;10.530;2023-07-20T14:53:56;2.15;;;1.10;;
11955;SDS011;6038;52.276;10.530;2023-07-20T14:56:22;1.17;;;0.88;;
11955;SDS011;6038;52.276;10.530;2023-07-20T14:58:48;1.20;;;1.00;;
11955;SDS011;6038;52.276;10.530;2023-07-20T15:01:14;3.17;;;1.20;;
11955;SDS011;6038;52.276;10.530;2023-07-20T15:03:40;1.27;;;1.10;;
11955;SDS011;6038;52.276;10.530;2023-07-20T15:06:10;1.83;;;1.10;;